Wetterdaten: Woche 14.07.14 - 20.07.14 (KW29)
Datum Zeit Temp. A. Feuchte A. Luftdruck Regen Wind Richtung Taupunkt Windchill Windben
14.07.2014 00:00 16,4 C 83 % 1010,5 hPa 0,0 l/m 0,0 km/h N 13,5 C 16,4 C 0,0 km/h
14.07.2014 01:00 15,9 C 82 % 1010,6 hPa 0,0 l/m 0,2 km/h N 12,9 C 15,9 C 1,2 km/h
14.07.2014 02:00 15,5 C 82 % 1010,7 hPa 0,0 l/m 0,0 km/h N 12,3 C 15,5 C 0,4 km/h
14.07.2014 03:00 14,9 C 81 % 1010,8 hPa 0,0 l/m 0,0 km/h N 11,7 C 14,9 C 0,0 km/h
14.07.2014 04:00 14,5 C 81 % 1011,1 hPa 0,0 l/m 0,0 km/h N 11,3 C 14,5 C 0,8 km/h
14.07.2014 05:00 14,0 C 80 % 1011,7 hPa 0,0 l/m 0,0 km/h N 10,7 C 14,0 C 0,0 km/h
14.07.2014 06:00 14,7 C 78 % 1012,1 hPa 0,0 l/m 0,0 km/h N 11,0 C 14,7 C 0,4 km/h
14.07.2014 07:00 16,4 C 76 % 1012,5 hPa 0,0 l/m 0,1 km/h N 12,1 C 16,4 C 1,6 km/h
14.07.2014 08:00 18,6 C 76 % 1012,6 hPa 0,0 l/m 0,2 km/h N 14,3 C 18,6 C 2,8 km/h
14.07.2014 09:00 21,0 C 81 % 1012,7 hPa 0,0 l/m 0,7 km/h N 17,6 C 21,0 C 6,4 km/h
14.07.2014 10:00 23,5 C 73 % 1012,6 hPa 0,0 l/m 0,3 km/h N 18,3 C 23,5 C 4,8 km/h
14.07.2014 11:00 24,7 C 65 % 1012,6 hPa 0,0 l/m 1,0 km/h N 17,5 C 24,7 C 8,4 km/h
14.07.2014 12:00 24,8 C 58 % 1012,5 hPa 0,0 l/m 2,3 km/h N 16,0 C 24,8 C 10,1 km/h
14.07.2014 13:00 26,2 C 54 % 1012,3 hPa 0,0 l/m 1,6 km/h N 16,0 C 26,2 C 8,8 km/h
14.07.2014 14:00 27,1 C 52 % 1012,0 hPa 0,0 l/m 0,7 km/h N 16,2 C 27,1 C 5,6 km/h
14.07.2014 15:00 26,7 C 53 % 1012,1 hPa 0,0 l/m 0,2 km/h N 16,2 C 26,7 C 3,6 km/h
14.07.2014 16:00 24,5 C 66 % 1012,1 hPa 0,3 l/m 1,2 km/h N 17,6 C 24,5 C 6,0 km/h
14.07.2014 17:00 25,2 C 69 % 1011,9 hPa 0,3 l/m 0,0 km/h N 19,0 C 25,2 C 1,2 km/h
14.07.2014 18:00 25,7 C 63 % 1011,9 hPa 0,0 l/m 0,0 km/h N 18,1 C 25,7 C 1,6 km/h
14.07.2014 19:00 25,7 C 61 % 1012,2 hPa 0,0 l/m 0,2 km/h N 17,6 C 25,7 C 2,8 km/h
14.07.2014 20:00 24,0 C 63 % 1012,6 hPa 0,0 l/m 0,5 km/h N 16,5 C 24,0 C 5,6 km/h
14.07.2014 21:00 22,4 C 67 % 1013,3 hPa 0,0 l/m 0,1 km/h N 16,0 C 22,4 C 1,6 km/h
14.07.2014 22:00 21,5 C 70 % 1013,9 hPa 0,0 l/m 0,6 km/h N 15,8 C 21,5 C 3,6 km/h
14.07.2014 23:00 21,2 C 70 % 1014,3 hPa 0,0 l/m 0,3 km/h N 15,6 C 21,2 C 3,2 km/h
15.07.2014 00:00 20,3 C 72 % 1014,3 hPa 0,0 l/m 1,2 km/h N 15,1 C 20,3 C 8,5 km/h
15.07.2014 01:00 20,9 C 69 % 1014,6 hPa 0,0 l/m 3,1 km/h N 15,0 C 20,9 C 12,9 km/h
15.07.2014 02:00 21,1 C 68 % 1014,7 hPa 0,0 l/m 6,2 km/h N 15,0 C 21,0 C 18,9 km/h
15.07.2014 03:00 20,8 C 69 % 1015,0 hPa 0,0 l/m 3,1 km/h N 14,9 C 20,8 C 13,7 km/h
15.07.2014 04:00 20,3 C 71 % 1015,4 hPa 0,0 l/m 2,4 km/h N 14,9 C 20,3 C 12,1 km/h
15.07.2014 05:00 20,4 C 70 % 1015,8 hPa 0,0 l/m 4,0 km/h N 14,7 C 20,4 C 16,9 km/h
15.07.2014 06:00 20,8 C 70 % 1016,0 hPa 0,0 l/m 9,6 km/h N 15,1 C 19,6 C 28,2 km/h
15.07.2014 07:00 21,0 C 71 % 1016,6 hPa 0,0 l/m 8,9 km/h N 15,4 C 20,1 C 29,0 km/h
15.07.2014 08:00 22,0 C 69 % 1017,1 hPa 0,0 l/m 8,9 km/h N 16,1 C 21,2 C 25,8 km/h
15.07.2014 09:00 23,3 C 67 % 1017,5 hPa 0,0 l/m 6,4 km/h N 16,8 C 23,3 C 23,3 km/h
15.07.2014 10:00 24,0 C 65 % 1017,6 hPa 0,0 l/m 5,6 km/h N 16,9 C 24,0 C 20,1 km/h
15.07.2014 11:00 24,9 C 64 % 1017,5 hPa 0,0 l/m 7,2 km/h N 17,6 C 24,7 C 24,1 km/h
15.07.2014 12:00 25,8 C 60 % 1017,4 hPa 0,0 l/m 5,6 km/h N 17,2 C 25,8 C 16,9 km/h
15.07.2014 13:00 26,8 C 56 % 1017,0 hPa 0,0 l/m 6,4 km/h N 17,2 C 26,8 C 22,5 km/h
15.07.2014 14:00 27,3 C 53 % 1016,7 hPa 0,0 l/m 6,4 km/h N 16,7 C 27,3 C 21,7 km/h
15.07.2014 15:00 27,6 C 54 % 1016,2 hPa 0,0 l/m 6,4 km/h N 17,5 C 27,7 C 22,5 km/h
15.07.2014 16:00 27,7 C 53 % 1015,9 hPa 0,0 l/m 6,7 km/h N 17,2 C 27,6 C 21,3 km/h
15.07.2014 17:00 28,0 C 51 % 1015,7 hPa 0,0 l/m 6,5 km/h N 16,8 C 27,9 C 20,9 km/h
15.07.2014 18:00 27,6 C 50 % 1015,8 hPa 0,0 l/m 6,0 km/h N 16,3 C 27,6 C 17,7 km/h
15.07.2014 19:00 27,1 C 54 % 1016,1 hPa 0,0 l/m 1,8 km/h N 16,9 C 27,1 C 8,4 km/h
15.07.2014 20:00 26,1 C 55 % 1016,4 hPa 0,0 l/m 5,4 km/h N 16,4 C 26,1 C 17,7 km/h
15.07.2014 21:00 24,3 C 58 % 1017,5 hPa 0,0 l/m 7,8 km/h N 15,5 C 23,9 C 20,9 km/h
15.07.2014 22:00 22,7 C 61 % 1018,4 hPa 0,0 l/m 7,9 km/h N 14,6 C 22,2 C 22,5 km/h
15.07.2014 23:00 22,3 C 63 % 1018,4 hPa 0,0 l/m 5,8 km/h N 14,9 C 22,1 C 17,7 km/h
16.07.2014 00:00 22,2 C 63 % 1018,4 hPa 0,0 l/m 1,1 km/h N 14,8 C 22,2 C 5,2 km/h
16.07.2014 01:00 21,7 C 66 % 1018,2 hPa 0,0 l/m 0,4 km/h N 15,0 C 21,7 C 3,6 km/h
16.07.2014 02:00 21,5 C 66 % 1018,1 hPa 0,0 l/m 1,5 km/h N 14,9 C 21,5 C 9,3 km/h
16.07.2014 03:00 21,1 C 69 % 1018,0 hPa 0,0 l/m 1,8 km/h N 15,2 C 21,1 C 8,9 km/h
16.07.2014 04:00 20,5 C 72 % 1018,1 hPa 0,0 l/m 2,2 km/h N 15,2 C 20,5 C 8,9 km/h
16.07.2014 05:00 20,4 C 72 % 1018,3 hPa 0,0 l/m 2,3 km/h N 15,1 C 20,4 C 8,8 km/h
16.07.2014 06:00 20,8 C 70 % 1018,5 hPa 0,0 l/m 2,6 km/h N 15,2 C 20,8 C 13,7 km/h
16.07.2014 07:00 21,8 C 68 % 1018,7 hPa 0,0 l/m 4,7 km/h N 15,7 C 21,8 C 16,1 km/h
16.07.2014 08:00 22,9 C 66 % 1019,0 hPa 0,0 l/m 5,3 km/h N 16,2 C 22,9 C 17,3 km/h
16.07.2014 09:00 23,5 C 66 % 1019,2 hPa 0,0 l/m 6,4 km/h N 16,8 C 23,4 C 18,9 km/h
16.07.2014 10:00 24,7 C 65 % 1019,1 hPa 0,0 l/m 4,2 km/h N 17,6 C 24,7 C 13,3 km/h
16.07.2014 11:00 25,8 C 60 % 1018,8 hPa 0,0 l/m 5,7 km/h N 17,4 C 25,8 C 16,1 km/h
16.07.2014 12:00 26,9 C 54 % 1018,3 hPa 0,0 l/m 6,2 km/h N 16,8 C 26,8 C 18,1 km/h
16.07.2014 13:00 27,4 C 53 % 1018,0 hPa 0,0 l/m 4,2 km/h N 16,8 C 27,4 C 16,5 km/h
16.07.2014 14:00 28,4 C 50 % 1017,4 hPa 0,0 l/m 5,4 km/h N 16,9 C 28,4 C 18,5 km/h
16.07.2014 15:00 28,7 C 47 % 1017,0 hPa 0,0 l/m 5,8 km/h N 16,3 C 28,7 C 21,3 km/h
16.07.2014 16:00 28,4 C 48 % 1016,9 hPa 0,0 l/m 7,8 km/h N 16,2 C 28,2 C 22,5 km/h
16.07.2014 17:00 27,7 C 51 % 1016,8 hPa 0,0 l/m 8,1 km/h N 16,7 C 27,4 C 23,7 km/h
16.07.2014 18:00 28,0 C 49 % 1016,8 hPa 0,0 l/m 6,3 km/h N 16,2 C 27,9 C 21,3 km/h
16.07.2014 19:00 26,4 C 49 % 1016,9 hPa 0,0 l/m 5,0 km/h N 14,9 C 26,4 C 16,1 km/h
16.07.2014 20:00 25,0 C 50 % 1017,2 hPa 0,0 l/m 2,0 km/h N 13,7 C 25,0 C 9,3 km/h
16.07.2014 21:00 23,4 C 57 % 1017,7 hPa 0,0 l/m 0,1 km/h N 14,4 C 23,4 C 2,0 km/h
16.07.2014 22:00 21,6 C 62 % 1018,0 hPa 0,0 l/m 0,0 km/h N 14,1 C 21,6 C 0,0 km/h
16.07.2014 23:00 21,1 C 67 % 1018,3 hPa 0,0 l/m 0,0 km/h N 14,7 C 21,1 C 0,4 km/h
17.07.2014 00:00 20,8 C 68 % 1018,6 hPa 0,0 l/m 0,9 km/h N 14,6 C 20,8 C 4,0 km/h
17.07.2014 01:00 22,0 C 64 % 1018,3 hPa 0,0 l/m 1,9 km/h N 14,8 C 22,0 C 8,0 km/h
17.07.2014 02:00 22,1 C 63 % 1018,1 hPa 0,0 l/m 0,5 km/h N 14,8 C 22,1 C 4,4 km/h
17.07.2014 03:00 20,6 C 68 % 1017,9 hPa 0,0 l/m 0,1 km/h N 14,5 C 20,6 C 0,8 km/h
17.07.2014 04:00 21,0 C 68 % 1018,0 hPa 0,0 l/m 1,5 km/h N 14,7 C 21,0 C 8,9 km/h
17.07.2014 05:00 21,4 C 67 % 1018,1 hPa 0,0 l/m 0,9 km/h N 15,0 C 21,4 C 6,4 km/h
17.07.2014 06:00 21,7 C 66 % 1018,4 hPa 0,0 l/m 2,0 km/h N 15,1 C 21,7 C 8,9 km/h
17.07.2014 07:00 22,4 C 65 % 1018,7 hPa 0,0 l/m 3,9 km/h N 15,4 C 22,4 C 13,7 km/h
17.07.2014 08:00 23,0 C 62 % 1019,0 hPa 0,0 l/m 4,5 km/h N 15,3 C 23,0 C 16,1 km/h
17.07.2014 09:00 24,2 C 60 % 1019,1 hPa 0,0 l/m 5,7 km/h N 15,9 C 24,1 C 20,1 km/h
17.07.2014 10:00 24,4 C 61 % 1019,2 hPa 0,0 l/m 6,0 km/h N 16,4 C 24,3 C 17,7 km/h
17.07.2014 11:00 25,3 C 60 % 1019,0 hPa 0,0 l/m 5,1 km/h N 17,0 C 25,3 C 15,7 km/h
17.07.2014 12:00 27,1 C 55 % 1018,5 hPa 0,0 l/m 4,9 km/h N 17,1 C 27,1 C 15,7 km/h
17.07.2014 13:00 28,2 C 50 % 1017,8 hPa 0,0 l/m 5,7 km/h N 16,7 C 28,2 C 20,9 km/h
17.07.2014 14:00 28,9 C 48 % 1017,0 hPa 0,0 l/m 5,5 km/h N 16,6 C 28,9 C 19,3 km/h
17.07.2014 15:00 29,2 C 47 % 1016,6 hPa 0,0 l/m 5,8 km/h N 16,5 C 29,2 C 20,9 km/h
17.07.2014 16:00 29,2 C 47 % 1016,4 hPa 0,0 l/m 8,4 km/h N 16,7 C 29,0 C 23,7 km/h
17.07.2014 17:00 27,6 C 49 % 1016,7 hPa 0,0 l/m 10,6 km/h N 15,8 C 27,0 C 26,1 km/h
17.07.2014 18:00 27,1 C 49 % 1016,6 hPa 0,0 l/m 8,9 km/h N 15,3 C 26,6 C 26,5 km/h
17.07.2014 19:00 25,4 C 51 % 1016,9 hPa 0,0 l/m 7,3 km/h N 14,5 C 25,1 C 21,3 km/h
17.07.2014 20:00 24,7 C 54 % 1016,9 hPa 0,0 l/m 7,0 km/h N 14,8 C 24,5 C 20,1 km/h
17.07.2014 21:00 24,2 C 57 % 1017,4 hPa 0,0 l/m 5,1 km/h N 15,0 C 24,1 C 17,3 km/h
17.07.2014 22:00 23,0 C 60 % 1017,8 hPa 0,0 l/m 1,5 km/h N 14,9 C 23,0 C 6,4 km/h
17.07.2014 23:00 21,1 C 67 % 1017,7 hPa 0,0 l/m 0,4 km/h N 14,6 C 21,1 C 3,6 km/h
18.07.2014 00:00 21,6 C 64 % 1017,4 hPa 0,0 l/m 1,2 km/h N 14,5 C 21,6 C 7,6 km/h
18.07.2014 01:00 21,1 C 65 % 1017,4 hPa 0,0 l/m 0,3 km/h N 14,3 C 21,1 C 3,6 km/h
18.07.2014 02:00 21,8 C 64 % 1017,3 hPa 0,0 l/m 2,0 km/h N 14,6 C 21,8 C 10,1 km/h
18.07.2014 03:00 21,7 C 64 % 1017,1 hPa 0,0 l/m 2,8 km/h N 14,5 C 21,7 C 10,1 km/h
18.07.2014 04:00 21,5 C 64 % 1017,1 hPa 0,0 l/m 3,3 km/h N 14,5 C 21,5 C 14,1 km/h
18.07.2014 05:00 21,2 C 66 % 1017,3 hPa 0,0 l/m 4,5 km/h N 14,5 C 21,2 C 16,1 km/h
18.07.2014 06:00 20,8 C 69 % 1018,0 hPa 0,0 l/m 4,0 km/h N 14,8 C 20,8 C 13,7 km/h
18.07.2014 07:00 21,7 C 67 % 1018,2 hPa 0,0 l/m 6,1 km/h N 15,3 C 21,6 C 18,5 km/h
18.07.2014 08:00 22,9 C 66 % 1018,1 hPa 0,0 l/m 5,4 km/h N 16,2 C 22,9 C 15,7 km/h
18.07.2014 09:00 24,2 C 63 % 1018,1 hPa 0,0 l/m 5,9 km/h N 16,6 C 24,2 C 18,9 km/h
18.07.2014 10:00 25,2 C 61 % 1018,0 hPa 0,0 l/m 6,0 km/h N 17,2 C 25,2 C 20,1 km/h
18.07.2014 11:00 26,4 C 58 % 1017,9 hPa 0,0 l/m 4,8 km/h N 17,5 C 26,4 C 18,1 km/h
18.07.2014 12:00 27,5 C 55 % 1017,6 hPa 0,0 l/m 5,3 km/h N 17,7 C 27,5 C 17,7 km/h
18.07.2014 13:00 28,1 C 53 % 1017,1 hPa 0,0 l/m 6,3 km/h N 17,6 C 28,1 C 20,5 km/h
18.07.2014 14:00 28,9 C 51 % 1016,4 hPa 0,0 l/m 6,0 km/h N 17,6 C 28,9 C 20,5 km/h
18.07.2014 15:00 29,4 C 48 % 1016,0 hPa 0,0 l/m 4,3 km/h N 17,1 C 29,4 C 15,7 km/h
18.07.2014 16:00 29,4 C 45 % 1015,7 hPa 0,0 l/m 3,8 km/h N 16,2 C 29,4 C 15,7 km/h
18.07.2014 17:00 29,1 C 47 % 1015,5 hPa 0,0 l/m 6,5 km/h N 16,6 C 29,0 C 21,3 km/h
18.07.2014 18:00 29,0 C 47 % 1015,5 hPa 0,0 l/m 6,1 km/h N 16,4 C 29,0 C 20,1 km/h
18.07.2014 19:00 27,7 C 51 % 1016,0 hPa 0,0 l/m 4,8 km/h N 16,4 C 27,7 C 16,1 km/h
18.07.2014 20:00 25,9 C 57 % 1016,3 hPa 0,0 l/m 2,0 km/h N 16,8 C 25,9 C 8,9 km/h
18.07.2014 21:00 24,5 C 60 % 1016,5 hPa 0,0 l/m 0,3 km/h N 16,1 C 24,5 C 3,2 km/h
18.07.2014 22:00 22,8 C 65 % 1016,6 hPa 0,0 l/m 0,0 km/h N 15,8 C 22,8 C 0,0 km/h
18.07.2014 23:00 20,6 C 72 % 1016,7 hPa 0,0 l/m 0,0 km/h N 15,4 C 20,6 C 0,4 km/h
19.07.2014 00:00 19,7 C 77 % 1016,9 hPa 0,0 l/m 0,1 km/h N 15,5 C 19,7 C 1,2 km/h
19.07.2014 01:00 19,3 C 78 % 1016,9 hPa 0,0 l/m 0,1 km/h N 15,4 C 19,3 C 2,0 km/h
19.07.2014 02:00 19,5 C 77 % 1016,7 hPa 0,0 l/m 0,3 km/h N 15,4 C 19,5 C 3,2 km/h
19.07.2014 03:00 19,1 C 77 % 1016,5 hPa 0,0 l/m 0,1 km/h N 15,1 C 19,1 C 1,6 km/h
19.07.2014 04:00 18,5 C 78 % 1016,5 hPa 0,0 l/m 0,0 km/h N 14,7 C 18,5 C 1,2 km/h
19.07.2014 05:00 17,6 C 80 % 1016,8 hPa 0,0 l/m 0,0 km/h N 14,2 C 17,6 C 0,4 km/h
19.07.2014 06:00 17,5 C 83 % 1016,9 hPa 0,0 l/m 0,1 km/h N 14,5 C 17,5 C 1,2 km/h
19.07.2014 07:00 19,0 C 81 % 1016,9 hPa 0,0 l/m 0,4 km/h N 15,7 C 19,0 C 3,6 km/h
19.07.2014 08:00 23,0 C 71 % 1016,7 hPa 0,0 l/m 0,1 km/h N 17,5 C 23,0 C 1,6 km/h
19.07.2014 09:00 26,5 C 61 % 1016,6 hPa 0,0 l/m 0,5 km/h N 18,3 C 26,5 C 4,8 km/h
19.07.2014 10:00 27,7 C 58 % 1016,5 hPa 0,0 l/m 0,8 km/h N 18,6 C 27,7 C 6,0 km/h
19.07.2014 11:00 28,9 C 53 % 1016,3 hPa 0,0 l/m 1,0 km/h N 18,4 C 28,9 C 8,0 km/h
19.07.2014 12:00 30,1 C 48 % 1015,9 hPa 0,0 l/m 2,3 km/h N 17,9 C 30,1 C 10,5 km/h
19.07.2014 13:00 31,3 C 46 % 1015,3 hPa 0,0 l/m 2,5 km/h N 18,1 C 31,3 C 12,1 km/h
19.07.2014 14:00 31,6 C 45 % 1014,9 hPa 0,0 l/m 2,5 km/h N 18,2 C 31,6 C 10,9 km/h
19.07.2014 15:00 31,3 C 45 % 1014,7 hPa 0,0 l/m 2,0 km/h N 17,7 C 31,3 C 11,3 km/h
19.07.2014 16:00 30,5 C 44 % 1014,3 hPa 0,0 l/m 3,0 km/h N 16,7 C 30,5 C 13,3 km/h
19.07.2014 17:00 30,5 C 44 % 1013,6 hPa 0,0 l/m 2,5 km/h N 16,7 C 30,5 C 11,3 km/h
19.07.2014 18:00 30,9 C 44 % 1013,3 hPa 0,0 l/m 1,2 km/h N 17,1 C 30,9 C 9,7 km/h
19.07.2014 19:00 30,3 C 46 % 1013,1 hPa 0,0 l/m 1,6 km/h N 17,2 C 30,3 C 10,1 km/h
19.07.2014 20:00 28,9 C 51 % 1013,0 hPa 0,0 l/m 0,5 km/h N 17,6 C 28,9 C 4,0 km/h
19.07.2014 21:00 26,5 C 58 % 1013,1 hPa 0,0 l/m 0,6 km/h N 17,6 C 26,5 C 6,0 km/h
19.07.2014 22:00 24,3 C 66 % 1013,1 hPa 0,0 l/m 0,0 km/h N 17,4 C 24,3 C 0,8 km/h
19.07.2014 23:00 22,0 C 73 % 1013,0 hPa 0,0 l/m 0,0 km/h N 16,9 C 22,0 C 0,0 km/h
20.07.2014 00:00 20,4 C 79 % 1013,1 hPa 0,0 l/m 0,0 km/h N 16,6 C 20,4 C 0,0 km/h
20.07.2014 01:00 19,4 C 81 % 1012,9 hPa 0,0 l/m 0,0 km/h N 16,0 C 19,4 C 0,0 km/h
20.07.2014 02:00 18,6 C 83 % 1012,7 hPa 0,0 l/m 0,0 km/h N 15,5 C 18,6 C 0,0 km/h
20.07.2014 03:00 18,1 C 82 % 1012,2 hPa 0,0 l/m 0,0 km/h N 15,0 C 18,1 C 0,0 km/h
20.07.2014 04:00 17,8 C 82 % 1011,8 hPa 0,0 l/m 0,0 km/h N 14,6 C 17,8 C 0,0 km/h
20.07.2014 05:00 17,7 C 81 % 1011,5 hPa 0,0 l/m 0,0 km/h N 14,4 C 17,7 C 0,0 km/h
20.07.2014 06:00 18,1 C 79 % 1011,5 hPa 0,0 l/m 0,0 km/h N 14,4 C 18,1 C 0,0 km/h
20.07.2014 07:00 19,7 C 78 % 1011,4 hPa 0,0 l/m 0,1 km/h N 15,7 C 19,7 C 2,4 km/h
20.07.2014 08:00 24,2 C 73 % 1010,8 hPa 0,0 l/m 2,2 km/h N 18,9 C 24,2 C 10,4 km/h
20.07.2014 09:00 28,3 C 57 % 1010,3 hPa 0,0 l/m 6,8 km/h N 18,9 C 28,3 C 22,5 km/h
20.07.2014 10:00 29,7 C 51 % 1010,0 hPa 0,0 l/m 10,3 km/h N 18,5 C 29,3 C 29,0 km/h
20.07.2014 11:00 31,0 C 47 % 1009,8 hPa 0,0 l/m 10,9 km/h N 18,3 C 30,8 C 27,0 km/h
20.07.2014 12:00 32,0 C 47 % 1009,3 hPa 0,0 l/m 9,1 km/h N 19,0 C 31,9 C 26,9 km/h
20.07.2014 13:00 32,9 C 44 % 1008,8 hPa 0,0 l/m 9,1 km/h N 19,1 C 32,9 C 22,9 km/h
20.07.2014 14:00 33,5 C 43 % 1008,3 hPa 0,0 l/m 8,7 km/h N 19,0 C 33,5 C 22,9 km/h
20.07.2014 15:00 33,2 C 44 % 1008,0 hPa 0,0 l/m 9,0 km/h N 19,3 C 33,2 C 24,9 km/h
20.07.2014 16:00 32,8 C 45 % 1007,4 hPa 0,0 l/m 8,6 km/h N 19,3 C 32,7 C 23,3 km/h
20.07.2014 17:00 32,3 C 47 % 1006,8 hPa 0,0 l/m 8,1 km/h N 19,4 C 32,2 C 22,5 km/h
20.07.2014 18:00 31,9 C 49 % 1006,7 hPa 0,0 l/m 6,6 km/h N 19,9 C 31,9 C 20,5 km/h
20.07.2014 19:00 30,6 C 54 % 1007,2 hPa 0,0 l/m 5,4 km/h N 20,0 C 30,6 C 16,1 km/h
20.07.2014 20:00 29,3 C 59 % 1007,3 hPa 0,0 l/m 2,9 km/h N 20,3 C 29,3 C 11,3 km/h
20.07.2014 21:00 28,0 C 61 % 1008,0 hPa 0,0 l/m 3,4 km/h N 19,6 C 28,0 C 13,7 km/h
20.07.2014 22:00 24,5 C 76 % 1008,5 hPa 1,6 l/m 0,4 km/h N 19,9 C 24,5 C 4,0 km/h
20.07.2014 23:00 22,7 C 82 % 1007,0 hPa 0,0 l/m 0,7 km/h N 19,4 C 22,7 C 5,6 km/h
Min-Datum _ 14.07.14 19.07.14 20.07.14 - 14.07.14 - 14.07.14 14.07.14 14.07.14
_ Min-Zeit 05:30 14:45 18:30 - 00:00 - 05:30 05:30 00:00
Minimum _ 13,9 C 42 % 1006,6 hPa - 0,0 km/h - 10,5 C 13,9 C 0,0 km/h
Max-Datum _ 20.07.14 14.07.14 16.07.14 20.07.14 17.07.14 - 20.07.14 20.07.14 20.07.14
_ Max-Zeit 14:30 00:00 09:15 22:00 17:00 - 22:15 14:30 10:30
Maximum _ 33,8 C 83 % 1019,2 hPa 1,6 l/m 13,4 km/h
N
- 20,4 C 33,7 C 33,8 km/h
N
Durchschnitt _ 24,2 C 62 % 1015,2 hPa #2,1 l/m 3,3 km/h N 16,2 C 24,2 C 11,7 km/h